createdAt,value
2023-05-13T00:01:00.973Z,13.80
2023-05-13T00:03:31.277Z,13.70
2023-05-13T00:06:01.628Z,13.70
2023-05-13T00:08:31.868Z,13.70
2023-05-13T00:11:04.682Z,13.60
2023-05-13T00:13:34.863Z,13.60
2023-05-13T00:16:06.297Z,13.60
2023-05-13T00:18:36.522Z,13.60
2023-05-13T00:21:07.061Z,13.60
2023-05-13T00:23:37.376Z,13.60
2023-05-13T00:26:10.235Z,13.50
2023-05-13T00:28:40.440Z,13.50
2023-05-13T00:31:10.765Z,13.50
2023-05-13T00:33:40.943Z,13.50
2023-05-13T00:36:12.632Z,13.40
2023-05-13T00:38:44.278Z,13.40
2023-05-13T00:41:17.080Z,13.40
2023-05-13T00:43:47.300Z,13.40
2023-05-13T00:46:18.120Z,13.30
2023-05-13T00:48:48.478Z,13.40
2023-05-13T00:51:18.745Z,13.40
2023-05-13T00:53:49.389Z,13.30
2023-05-13T00:56:24.845Z,13.30
2023-05-13T00:58:55.184Z,13.30
2023-05-13T01:01:35.520Z,13.30
2023-05-13T01:04:31.208Z,13.30
2023-05-13T01:07:13.928Z,13.30
2023-05-13T01:09:57.331Z,13.20
2023-05-13T01:12:36.521Z,13.20
2023-05-13T01:15:11.312Z,13.30
2023-05-13T01:17:51.167Z,13.20
2023-05-13T01:20:25.862Z,13.20
2023-05-13T01:22:58.526Z,13.20
2023-05-13T01:25:28.885Z,13.10
2023-05-13T01:27:59.329Z,13.10
2023-05-13T01:30:29.693Z,13.10
2023-05-13T01:33:00.149Z,13.00
2023-05-13T01:35:31.993Z,13.00
2023-05-13T01:38:07.724Z,13.00
2023-05-13T01:40:38.460Z,13.00
2023-05-13T01:43:08.980Z,12.90
2023-05-13T01:45:39.683Z,12.80
2023-05-13T01:48:10.001Z,12.80
2023-05-13T01:50:40.203Z,12.70
2023-05-13T01:53:13.064Z,12.70
2023-05-13T01:55:43.442Z,12.70
2023-05-13T01:58:13.911Z,12.60
2023-05-13T02:00:44.140Z,12.60
2023-05-13T02:03:14.395Z,12.50
2023-05-13T02:05:44.943Z,12.50
2023-05-13T02:08:17.722Z,12.50
2023-05-13T02:10:47.882Z,12.50
2023-05-13T02:13:18.246Z,12.50
2023-05-13T02:15:48.443Z,12.40
2023-05-13T02:18:18.665Z,12.40
2023-05-13T02:20:49.520Z,12.40
2023-05-13T02:23:22.291Z,12.30
2023-05-13T02:25:52.493Z,12.30
2023-05-13T02:28:22.708Z,12.20
2023-05-13T02:30:52.945Z,12.20
2023-05-13T02:33:23.538Z,12.20
2023-05-13T02:35:53.805Z,12.20
2023-05-13T02:38:26.572Z,12.20
2023-05-13T02:40:56.817Z,12.10
2023-05-13T02:43:27.800Z,12.10
2023-05-13T02:45:58.036Z,12.10
2023-05-13T02:48:28.348Z,12.10
2023-05-13T02:50:58.539Z,12.00
2023-05-13T02:53:32.184Z,12.00
2023-05-13T02:56:02.429Z,12.00
2023-05-13T02:58:32.634Z,11.90
2023-05-13T03:01:02.852Z,12.00
2023-05-13T03:03:33.201Z,11.90
2023-05-13T03:06:03.829Z,11.90
2023-05-13T03:08:36.660Z,12.00
2023-05-13T03:11:06.843Z,11.90
2023-05-13T03:13:37.133Z,11.90
2023-05-13T03:16:08.055Z,11.90
2023-05-13T03:18:38.942Z,11.90
2023-05-13T03:21:09.376Z,11.90
2023-05-13T03:23:42.195Z,11.90
2023-05-13T03:26:15.462Z,11.90
2023-05-13T03:28:45.925Z,11.90
2023-05-13T03:31:16.284Z,11.90
2023-05-13T03:33:47.082Z,11.90
2023-05-13T03:36:17.549Z,11.90
2023-05-13T03:38:50.349Z,11.90
2023-05-13T03:41:21.174Z,11.90
2023-05-13T03:43:51.393Z,11.90
2023-05-13T03:46:21.735Z,11.80
2023-05-13T03:48:52.327Z,11.80
2023-05-13T03:51:22.525Z,11.80
2023-05-13T03:53:55.864Z,11.80
2023-05-13T03:56:26.108Z,11.80
2023-05-13T03:58:56.284Z,11.80
2023-05-13T04:01:26.555Z,11.80
2023-05-13T04:03:56.740Z,11.80
2023-05-13T04:06:26.990Z,11.80
2023-05-13T04:08:59.721Z,11.70
2023-05-13T04:11:29.956Z,11.70
2023-05-13T04:14:00.283Z,11.70
2023-05-13T04:16:30.507Z,11.80
2023-05-13T04:19:00.842Z,11.80
2023-05-13T04:21:31.717Z,11.80
2023-05-13T04:24:04.519Z,11.80
2023-05-13T04:26:34.811Z,11.80
2023-05-13T04:29:05.012Z,11.90
2023-05-13T04:31:35.366Z,11.90
2023-05-13T04:34:05.873Z,11.90
2023-05-13T04:36:36.107Z,11.90
2023-05-13T04:39:08.878Z,12.00
2023-05-13T04:41:39.058Z,12.10
2023-05-13T04:44:09.285Z,12.30
2023-05-13T04:46:40.726Z,12.50
2023-05-13T04:49:11.018Z,12.60
2023-05-13T04:51:41.617Z,12.70
2023-05-13T04:54:14.772Z,12.90
2023-05-13T04:56:44.945Z,13.10
2023-05-13T04:59:15.179Z,13.20
2023-05-13T05:01:45.362Z,13.30
2023-05-13T05:04:16.364Z,13.40
2023-05-13T05:06:46.550Z,13.50
2023-05-13T05:09:19.621Z,13.60
2023-05-13T05:11:50.611Z,13.80
2023-05-13T05:14:22.015Z,13.80
2023-05-13T05:16:52.200Z,13.90
2023-05-13T05:19:24.478Z,14.00
2023-05-13T05:21:54.794Z,14.10
2023-05-13T05:24:27.721Z,14.30
2023-05-13T05:26:58.023Z,14.50
2023-05-13T05:29:28.364Z,14.60
2023-05-13T05:31:58.642Z,14.80
2023-05-13T05:34:29.080Z,14.90
2023-05-13T05:36:59.227Z,15.00
2023-05-13T05:39:32.203Z,15.20
2023-05-13T05:42:02.338Z,15.50
2023-05-13T05:44:32.545Z,15.60
2023-05-13T05:47:02.761Z,15.70
2023-05-13T05:49:32.934Z,15.50
2023-05-13T05:52:03.376Z,15.60
2023-05-13T05:54:36.216Z,15.60
2023-05-13T05:57:06.417Z,15.70
2023-05-13T05:59:36.607Z,15.80
2023-05-13T06:02:07.359Z,15.90
2023-05-13T06:04:37.612Z,15.90
2023-05-13T06:07:08.476Z,16.00
2023-05-13T06:09:41.288Z,16.10
2023-05-13T06:12:11.707Z,16.40
2023-05-13T06:14:41.894Z,16.50
2023-05-13T06:17:14.954Z,16.40
2023-05-13T06:19:45.495Z,16.60
2023-05-13T06:22:15.909Z,16.80
2023-05-13T06:24:48.686Z,16.90
2023-05-13T06:27:18.862Z,17.10
2023-05-13T06:29:49.132Z,17.30
2023-05-13T06:32:19.340Z,17.00
2023-05-13T06:34:54.571Z,17.00
2023-05-13T06:37:25.934Z,17.20
2023-05-13T06:39:59.618Z,17.30
2023-05-13T06:42:29.803Z,17.40
2023-05-13T06:45:00.267Z,17.50
2023-05-13T06:47:30.467Z,17.40
2023-05-13T06:50:01.019Z,17.60
2023-05-13T06:52:31.584Z,17.70
2023-05-13T06:55:04.393Z,17.60
2023-05-13T06:57:42.415Z,17.70
2023-05-13T07:00:15.862Z,17.60
2023-05-13T07:02:46.114Z,17.70
2023-05-13T07:05:16.619Z,17.80
2023-05-13T07:07:46.847Z,17.80
2023-05-13T07:10:20.106Z,17.90
2023-05-13T07:12:53.395Z,17.90
2023-05-13T07:15:24.467Z,18.00
2023-05-13T07:17:54.689Z,17.90
2023-05-13T07:20:26.845Z,18.20
2023-05-13T07:22:57.100Z,18.40
2023-05-13T07:25:29.933Z,18.50
2023-05-13T07:28:00.109Z,18.60
2023-05-13T07:30:30.508Z,18.80
2023-05-13T07:33:00.744Z,18.80
2023-05-13T07:35:31.075Z,19.00
2023-05-13T07:38:01.245Z,19.00
2023-05-13T07:40:34.050Z,18.90
2023-05-13T07:43:04.209Z,18.80
2023-05-13T07:45:34.689Z,18.90
2023-05-13T07:48:05.741Z,19.00
2023-05-13T07:50:36.057Z,19.10
2023-05-13T07:53:19.820Z,19.00
2023-05-13T07:55:52.917Z,19.30
2023-05-13T07:58:23.326Z,19.20
2023-05-13T08:00:53.981Z,19.30
2023-05-13T08:03:24.381Z,19.50
2023-05-13T08:05:54.697Z,19.50
2023-05-13T08:08:24.868Z,19.70
2023-05-13T08:10:57.694Z,19.80
2023-05-13T08:13:28.392Z,19.70
2023-05-13T08:15:58.638Z,19.40
2023-05-13T08:18:28.982Z,19.50
2023-05-13T08:20:59.251Z,19.50
2023-05-13T08:23:43.350Z,19.30
2023-05-13T08:26:17.986Z,19.50
2023-05-13T08:28:49.110Z,19.70
2023-05-13T08:31:20.845Z,19.70
2023-05-13T08:33:51.094Z,20.10
2023-05-13T08:36:22.042Z,20.10
2023-05-13T08:38:52.258Z,19.90
2023-05-13T08:41:25.779Z,20.10
2023-05-13T08:43:59.569Z,20.10
2023-05-13T08:46:31.575Z,20.00
2023-05-13T08:49:03.041Z,19.80
2023-05-13T08:51:33.821Z,20.00
2023-05-13T08:54:05.408Z,20.10
2023-05-13T08:56:38.293Z,20.00
2023-05-13T08:59:08.546Z,20.10
2023-05-13T09:01:39.216Z,20.10
2023-05-13T09:04:11.820Z,20.40
2023-05-13T09:06:41.976Z,20.40
2023-05-13T09:09:12.678Z,20.30
2023-05-13T09:11:45.591Z,20.20
2023-05-13T09:14:16.522Z,20.40
2023-05-13T09:16:46.806Z,20.50
2023-05-13T09:19:17.515Z,20.70
2023-05-13T09:21:48.029Z,20.70
2023-05-13T09:24:21.828Z,20.60
2023-05-13T09:26:55.194Z,20.70
2023-05-13T09:29:29.495Z,20.80
2023-05-13T09:32:00.854Z,20.60
2023-05-13T09:34:33.182Z,20.60
2023-05-13T09:37:06.428Z,20.80
2023-05-13T09:39:41.947Z,21.00
2023-05-13T09:42:21.608Z,21.10
2023-05-13T09:44:51.828Z,20.90
2023-05-13T09:47:22.012Z,20.90
2023-05-13T09:49:59.530Z,20.90
2023-05-13T09:52:29.696Z,21.00
2023-05-13T09:55:00.544Z,20.90
2023-05-13T09:57:33.637Z,21.00
2023-05-13T10:00:05.678Z,20.90
2023-05-13T10:02:36.609Z,20.90
2023-05-13T10:05:10.113Z,20.90
2023-05-13T10:07:42.166Z,20.80
2023-05-13T10:10:13.511Z,20.90
2023-05-13T10:12:46.611Z,20.90
2023-05-13T10:15:17.236Z,20.80
2023-05-13T10:17:48.303Z,20.80
2023-05-13T10:20:18.985Z,21.00
2023-05-13T10:22:49.708Z,21.20
2023-05-13T10:25:20.763Z,21.00
2023-05-13T10:27:56.184Z,21.00
2023-05-13T10:30:28.602Z,21.10
2023-05-13T10:32:58.886Z,20.90
2023-05-13T10:35:36.772Z,20.80
2023-05-13T10:38:13.134Z,20.80
2023-05-13T10:41:17.993Z,20.80
2023-05-13T10:43:59.422Z,21.00
2023-05-13T10:46:30.280Z,21.00
2023-05-13T10:49:02.967Z,20.90
2023-05-13T10:51:33.249Z,21.00
2023-05-13T10:54:03.946Z,21.00
2023-05-13T10:56:34.219Z,21.10
2023-05-13T10:59:08.825Z,21.00
2023-05-13T11:01:44.171Z,20.90
2023-05-13T11:04:18.735Z,21.00
2023-05-13T11:06:50.164Z,21.20
2023-05-13T11:09:34.613Z,21.40
2023-05-13T11:12:07.005Z,21.30
2023-05-13T11:14:39.756Z,21.20
2023-05-13T11:17:18.879Z,21.30
2023-05-13T11:19:51.730Z,21.20
2023-05-13T11:22:25.078Z,21.20
2023-05-13T11:25:09.710Z,21.10
2023-05-13T11:27:42.746Z,21.20
2023-05-13T11:30:26.205Z,21.10
2023-05-13T11:32:59.014Z,21.20
2023-05-13T11:35:31.723Z,21.30
2023-05-13T11:38:04.745Z,21.30
2023-05-13T11:40:38.541Z,21.40
2023-05-13T11:43:09.344Z,21.40
2023-05-13T11:45:44.518Z,21.40
2023-05-13T11:48:26.548Z,21.30
2023-05-13T11:51:00.514Z,21.50
2023-05-13T11:53:30.819Z,21.80
2023-05-13T11:56:13.599Z,21.60
2023-05-13T11:58:43.866Z,21.60
2023-05-13T12:01:20.188Z,21.60
2023-05-13T12:03:50.495Z,21.60
2023-05-13T12:06:21.753Z,21.60
2023-05-13T12:08:51.938Z,21.60
2023-05-13T12:11:22.405Z,21.60
2023-05-13T12:13:52.980Z,21.40
2023-05-13T12:16:26.326Z,21.40
2023-05-13T12:19:02.975Z,21.70
2023-05-13T12:21:36.071Z,21.70
2023-05-13T12:24:19.801Z,21.50
2023-05-13T12:26:50.284Z,21.50
2023-05-13T12:29:20.519Z,21.50
2023-05-13T12:32:09.153Z,21.60
2023-05-13T12:34:39.433Z,21.60
2023-05-13T12:37:14.554Z,21.50
2023-05-13T12:39:45.818Z,21.50
2023-05-13T12:42:20.415Z,21.50
2023-05-13T12:44:51.095Z,21.70
2023-05-13T12:47:24.087Z,21.60
2023-05-13T12:49:58.447Z,21.30
2023-05-13T12:52:28.795Z,21.40
2023-05-13T12:54:59.169Z,21.40
2023-05-13T12:57:31.556Z,21.00
2023-05-13T13:00:02.640Z,21.00
2023-05-13T13:02:35.433Z,21.20
2023-05-13T13:05:06.521Z,21.50
2023-05-13T13:07:38.305Z,21.40
2023-05-13T13:10:11.688Z,21.40
2023-05-13T13:12:42.151Z,21.30
2023-05-13T13:15:14.315Z,21.10
2023-05-13T13:17:47.161Z,20.90
2023-05-13T13:20:17.329Z,21.00
2023-05-13T13:22:47.541Z,21.10
2023-05-13T13:25:17.791Z,21.00
2023-05-13T13:27:48.669Z,21.00
2023-05-13T13:30:19.223Z,21.00
2023-05-13T13:32:52.141Z,21.10
2023-05-13T13:35:22.535Z,21.20
2023-05-13T13:37:54.501Z,21.20
2023-05-13T13:40:25.113Z,21.10
2023-05-13T13:42:55.330Z,21.10
2023-05-13T13:45:26.323Z,21.30
2023-05-13T13:47:59.123Z,21.30
2023-05-13T13:50:29.684Z,21.30
2023-05-13T13:52:59.899Z,21.40
2023-05-13T13:55:30.350Z,21.50
2023-05-13T13:58:00.756Z,21.30
2023-05-13T14:00:31.542Z,21.40
2023-05-13T14:03:04.460Z,21.40
2023-05-13T14:05:34.750Z,21.50
2023-05-13T14:08:04.948Z,21.60
2023-05-13T14:10:35.157Z,21.60
2023-05-13T14:13:05.361Z,21.60
2023-05-13T14:15:39.295Z,21.60
2023-05-13T14:18:12.357Z,21.70
2023-05-13T14:20:42.584Z,21.60
2023-05-13T14:23:12.887Z,21.60
2023-05-13T14:25:43.055Z,21.80
2023-05-13T14:28:15.591Z,21.80
2023-05-13T14:30:45.748Z,21.90
2023-05-13T14:33:18.627Z,22.10
2023-05-13T14:35:48.839Z,22.10
2023-05-13T14:38:19.011Z,22.10
2023-05-13T14:40:49.356Z,22.20
2023-05-13T14:43:19.600Z,22.30
2023-05-13T14:45:49.787Z,22.40
2023-05-13T14:48:22.861Z,22.50
2023-05-13T14:50:53.047Z,22.50
2023-05-13T14:53:23.823Z,22.40
2023-05-13T14:55:54.062Z,22.40
2023-05-13T14:58:24.441Z,22.40
2023-05-13T15:00:54.818Z,22.30
2023-05-13T15:03:27.782Z,22.40
2023-05-13T15:05:58.329Z,22.20
2023-05-13T15:08:28.763Z,21.90
2023-05-13T15:10:58.933Z,21.70
2023-05-13T15:13:30.027Z,21.80
2023-05-13T15:16:00.223Z,21.80
2023-05-13T15:18:33.294Z,21.60
2023-05-13T15:21:03.481Z,21.30
2023-05-13T15:23:33.654Z,21.30
2023-05-13T15:26:03.813Z,21.40
2023-05-13T15:28:34.061Z,21.30
2023-05-13T15:31:04.299Z,21.20
2023-05-13T15:33:37.173Z,21.20
2023-05-13T15:36:10.092Z,21.20
2023-05-13T15:38:40.371Z,21.20
2023-05-13T15:41:10.687Z,21.40
2023-05-13T15:43:40.917Z,21.40
2023-05-13T15:46:11.242Z,21.10
2023-05-13T15:48:44.146Z,21.00
2023-05-13T15:51:14.340Z,20.90
2023-05-13T15:53:44.519Z,20.90
2023-05-13T15:56:14.700Z,20.90
2023-05-13T15:58:44.877Z,20.80
2023-05-13T16:01:15.075Z,20.70
2023-05-13T16:03:47.842Z,20.70
2023-05-13T16:06:18.047Z,20.70
2023-05-13T16:08:48.557Z,20.40
2023-05-13T16:11:18.747Z,20.20
2023-05-13T16:13:49.698Z,19.80
2023-05-13T16:16:20.017Z,19.70
2023-05-13T16:18:53.050Z,19.60
2023-05-13T16:21:23.576Z,19.50
2023-05-13T16:23:53.775Z,19.40
2023-05-13T16:26:23.969Z,19.40
2023-05-13T16:28:54.291Z,19.40
2023-05-13T16:31:24.502Z,19.20
2023-05-13T16:33:57.668Z,19.30
2023-05-13T16:36:27.949Z,19.30
2023-05-13T16:38:58.227Z,19.40
2023-05-13T16:41:28.672Z,19.30
2023-05-13T16:43:58.881Z,19.30
2023-05-13T16:46:29.152Z,19.20
2023-05-13T16:49:02.000Z,19.20
2023-05-13T16:51:32.181Z,19.20
2023-05-13T16:54:02.350Z,19.20
2023-05-13T16:56:32.542Z,19.20
2023-05-13T16:59:02.756Z,19.10
2023-05-13T17:01:33.342Z,19.00
2023-05-13T17:04:06.245Z,19.00
2023-05-13T17:06:36.443Z,18.90
2023-05-13T17:09:06.795Z,18.70
2023-05-13T17:11:37.023Z,18.50
2023-05-13T17:14:09.070Z,18.40
2023-05-13T17:16:39.467Z,18.50
2023-05-13T17:19:12.412Z,18.40
2023-05-13T17:21:42.670Z,18.40
2023-05-13T17:24:12.879Z,18.20
2023-05-13T17:26:43.212Z,18.30
2023-05-13T17:29:13.361Z,18.30
2023-05-13T17:31:43.686Z,18.10
2023-05-13T17:34:16.668Z,18.10
2023-05-13T17:36:49.290Z,18.00
2023-05-13T17:39:20.496Z,18.00
2023-05-13T17:41:50.658Z,17.90
2023-05-13T17:44:20.890Z,18.00
2023-05-13T17:46:51.107Z,17.90
2023-05-13T17:49:23.913Z,17.80
2023-05-13T17:51:54.122Z,17.80
2023-05-13T17:54:24.289Z,17.70
2023-05-13T17:56:54.446Z,17.70
2023-05-13T17:59:24.663Z,17.80
2023-05-13T18:01:54.878Z,17.70
2023-05-13T18:04:27.710Z,17.70
2023-05-13T18:06:57.905Z,17.80
2023-05-13T18:09:28.324Z,17.70
2023-05-13T18:11:58.515Z,17.70
2023-05-13T18:14:32.447Z,17.70
2023-05-13T18:17:02.684Z,17.70
2023-05-13T18:19:35.784Z,17.70
2023-05-13T18:22:06.054Z,17.70
2023-05-13T18:24:36.256Z,17.70
2023-05-13T18:27:06.699Z,17.60
2023-05-13T18:29:37.280Z,17.50
2023-05-13T18:32:08.461Z,17.50
2023-05-13T18:34:41.313Z,17.40
2023-05-13T18:37:11.500Z,17.40
2023-05-13T18:39:41.708Z,17.40
2023-05-13T18:42:11.982Z,17.30
2023-05-13T18:44:42.164Z,17.20
2023-05-13T18:47:12.386Z,17.10
2023-05-13T18:49:45.347Z,17.10
2023-05-13T18:52:15.776Z,17.00
2023-05-13T18:54:45.974Z,16.90
2023-05-13T18:57:16.191Z,16.90
2023-05-13T18:59:46.420Z,16.70
2023-05-13T19:02:16.823Z,16.70
2023-05-13T19:04:49.779Z,16.70
2023-05-13T19:07:19.964Z,16.50
2023-05-13T19:09:50.145Z,16.40
2023-05-13T19:12:20.216Z,16.40
2023-05-13T19:14:50.221Z,16.30
2023-05-13T19:17:20.575Z,16.20
2023-05-13T19:19:53.417Z,16.00
2023-05-13T19:22:23.439Z,16.00
2023-05-13T19:24:53.445Z,16.00
2023-05-13T19:27:23.601Z,15.90
2023-05-13T19:29:53.618Z,15.70
2023-05-13T19:32:23.717Z,15.70
2023-05-13T19:34:56.561Z,15.60
2023-05-13T19:37:26.661Z,15.50
2023-05-13T19:39:56.725Z,15.40
2023-05-13T19:42:26.750Z,15.30
2023-05-13T19:44:56.754Z,15.20
2023-05-13T19:47:27.553Z,15.10
2023-05-13T19:50:00.329Z,15.10
2023-05-13T19:52:30.991Z,15.00
2023-05-13T19:55:01.048Z,14.90
2023-05-13T19:57:31.384Z,14.80
2023-05-13T20:00:02.134Z,14.70
2023-05-13T20:02:32.252Z,14.70
2023-05-13T20:05:04.999Z,14.60
2023-05-13T20:07:35.063Z,14.60
2023-05-13T20:10:05.209Z,14.50
2023-05-13T20:12:35.585Z,14.40
2023-05-13T20:15:05.838Z,14.40
2023-05-13T20:17:35.914Z,14.30
2023-05-13T20:20:11.008Z,14.20
2023-05-13T20:22:41.041Z,14.30
2023-05-13T20:25:12.799Z,14.30
2023-05-13T20:27:42.860Z,14.40
2023-05-13T20:30:15.412Z,14.30
2023-05-13T20:32:45.459Z,14.20
2023-05-13T20:35:18.217Z,14.10
2023-05-13T20:37:48.235Z,14.00
2023-05-13T20:40:18.400Z,14.00
2023-05-13T20:42:48.418Z,13.90
2023-05-13T20:45:18.706Z,13.80
2023-05-13T20:47:48.731Z,13.80
2023-05-13T20:50:21.759Z,13.70
2023-05-13T20:52:58.329Z,13.60
2023-05-13T20:55:47.152Z,13.60
2023-05-13T20:58:17.232Z,13.50
2023-05-13T21:00:47.262Z,13.40
2023-05-13T21:03:17.665Z,13.40
2023-05-13T21:05:50.364Z,13.40
2023-05-13T21:08:20.441Z,13.40
2023-05-13T21:10:50.481Z,13.40
2023-05-13T21:13:20.509Z,13.30
2023-05-13T21:15:52.077Z,13.20
2023-05-13T21:18:22.172Z,13.30
2023-05-13T21:20:55.245Z,13.20
2023-05-13T21:23:25.262Z,13.20
2023-05-13T21:25:55.315Z,13.20
2023-05-13T21:28:26.053Z,13.20
2023-05-13T21:30:56.233Z,13.10
2023-05-13T21:33:26.338Z,13.10
2023-05-13T21:35:59.626Z,13.00
2023-05-13T21:38:30.773Z,13.00
2023-05-13T21:41:01.527Z,12.90
2023-05-13T21:43:31.589Z,12.90
2023-05-13T21:46:02.684Z,12.80
2023-05-13T21:48:32.698Z,12.80
2023-05-13T21:51:05.515Z,12.70
2023-05-13T21:53:35.653Z,12.70
2023-05-13T21:56:05.747Z,12.70
2023-05-13T21:58:35.803Z,12.70
2023-05-13T22:01:05.864Z,12.70
2023-05-13T22:03:36.014Z,12.70
2023-05-13T22:06:09.105Z,12.60
2023-05-13T22:08:39.165Z,12.60
2023-05-13T22:11:09.747Z,12.60
2023-05-13T22:13:39.924Z,12.60
2023-05-13T22:16:10.484Z,12.50
2023-05-13T22:18:40.722Z,12.50
2023-05-13T22:21:13.429Z,12.50
2023-05-13T22:23:43.450Z,12.50
2023-05-13T22:26:13.492Z,12.70
2023-05-13T22:28:43.520Z,12.70
2023-05-13T22:31:13.653Z,12.70
2023-05-13T22:33:44.458Z,12.70
2023-05-13T22:36:17.226Z,12.70
2023-05-13T22:38:47.398Z,12.60
2023-05-13T22:41:19.107Z,12.60
2023-05-13T22:43:49.172Z,12.50
2023-05-13T22:46:21.645Z,12.50
2023-05-13T22:48:51.770Z,12.60
2023-05-13T22:51:24.422Z,12.60
2023-05-13T22:53:54.483Z,12.60
2023-05-13T22:56:24.602Z,12.60
2023-05-13T22:58:54.657Z,12.60
2023-05-13T23:01:24.758Z,12.60
2023-05-13T23:03:54.866Z,12.50
2023-05-13T23:06:28.843Z,12.60
2023-05-13T23:08:58.852Z,12.60
2023-05-13T23:11:28.887Z,12.50
2023-05-13T23:13:58.898Z,12.50
2023-05-13T23:16:29.391Z,12.40
2023-05-13T23:18:59.560Z,12.50
2023-05-13T23:21:32.801Z,12.50
2023-05-13T23:24:02.949Z,12.50
2023-05-13T23:26:33.939Z,12.50
2023-05-13T23:29:04.049Z,12.50
2023-05-13T23:31:34.212Z,12.50
2023-05-13T23:34:04.409Z,12.50
2023-05-13T23:36:37.308Z,12.50
2023-05-13T23:39:07.360Z,12.50
2023-05-13T23:41:37.546Z,12.40
2023-05-13T23:44:08.046Z,12.30
2023-05-13T23:46:38.069Z,12.30
2023-05-13T23:49:08.110Z,12.20
2023-05-13T23:51:41.128Z,12.20
2023-05-13T23:54:11.228Z,12.20
2023-05-13T23:56:41.306Z,12.20
2023-05-13T23:59:11.462Z,12.20
